createdAt,value
2024-01-24T00:01:57.677Z,1.28
2024-01-24T00:04:24.437Z,1.24
2024-01-24T00:06:51.114Z,1.25
2024-01-24T00:09:17.615Z,1.24
2024-01-24T00:11:44.321Z,1.22
2024-01-24T00:14:11.755Z,1.20
2024-01-24T00:16:38.183Z,1.19
2024-01-24T00:19:05.484Z,1.18
2024-01-24T00:21:32.009Z,1.17
2024-01-24T00:23:58.606Z,1.15
2024-01-24T00:26:25.220Z,1.10
2024-01-24T00:28:51.726Z,1.09
2024-01-24T00:31:18.153Z,1.18
2024-01-24T00:33:44.776Z,1.23
2024-01-24T00:36:11.947Z,1.25
2024-01-24T00:38:38.449Z,1.24
2024-01-24T00:41:05.123Z,1.23
2024-01-24T00:43:31.562Z,1.42
2024-01-24T00:45:58.109Z,1.43
2024-01-24T00:48:25.189Z,1.35
2024-01-24T00:50:51.785Z,1.34
2024-01-24T00:53:21.047Z,1.42
2024-01-24T00:55:48.785Z,1.50
2024-01-24T00:58:15.379Z,1.52
2024-01-24T01:00:42.440Z,1.55
2024-01-24T01:03:10.124Z,1.58
2024-01-24T01:05:39.005Z,1.66
2024-01-24T01:08:06.690Z,1.80
2024-01-24T01:10:33.257Z,1.75
2024-01-24T01:12:59.765Z,1.80
2024-01-24T01:15:26.374Z,1.79
2024-01-24T01:17:53.119Z,1.80
2024-01-24T01:20:22.432Z,1.83
2024-01-24T01:22:49.144Z,2.01
2024-01-24T01:25:15.764Z,2.20
2024-01-24T01:27:42.297Z,2.31
2024-01-24T01:30:09.323Z,2.40
2024-01-24T01:32:36.131Z,2.47
2024-01-24T01:35:02.624Z,2.43
2024-01-24T01:37:29.146Z,2.51
2024-01-24T01:39:56.479Z,2.52
2024-01-24T01:42:23.146Z,2.53
2024-01-24T01:44:49.938Z,2.50
2024-01-24T01:47:17.862Z,2.61
2024-01-24T01:49:45.854Z,2.61
2024-01-24T01:52:13.119Z,2.60
2024-01-24T01:54:42.054Z,2.69
2024-01-24T01:57:11.866Z,2.74
2024-01-24T01:59:41.321Z,2.76
2024-01-24T02:02:07.923Z,2.70
2024-01-24T02:04:34.456Z,2.73
2024-01-24T02:07:01.691Z,2.78
2024-01-24T02:09:28.533Z,2.75
2024-01-24T02:11:55.274Z,2.66
2024-01-24T02:14:22.217Z,2.71
2024-01-24T02:16:48.825Z,2.76
2024-01-24T02:19:15.401Z,2.79
2024-01-24T02:21:42.350Z,2.90
2024-01-24T02:24:13.600Z,2.92
2024-01-24T02:26:40.404Z,2.89
2024-01-24T02:29:07.398Z,2.91
2024-01-24T02:31:34.072Z,2.80
2024-01-24T02:34:00.726Z,2.89
2024-01-24T02:36:27.653Z,2.80
2024-01-24T02:38:56.917Z,2.84
2024-01-24T02:41:25.110Z,2.88
2024-01-24T02:43:51.523Z,2.83
2024-01-24T02:46:18.154Z,2.93
2024-01-24T02:48:44.636Z,2.88
2024-01-24T02:51:11.730Z,2.93
2024-01-24T02:53:39.950Z,2.90
2024-01-24T02:56:06.549Z,2.80
2024-01-24T02:58:33.287Z,2.90
2024-01-24T03:00:59.897Z,2.78
2024-01-24T03:03:26.437Z,2.77
2024-01-24T03:05:53.347Z,2.80
2024-01-24T03:08:19.855Z,2.73
2024-01-24T03:10:46.397Z,2.71
2024-01-24T03:13:12.979Z,2.68
2024-01-24T03:15:39.927Z,2.71
2024-01-24T03:18:06.705Z,2.69
2024-01-24T03:20:33.363Z,2.58
2024-01-24T03:23:01.946Z,2.48
2024-01-24T03:25:29.769Z,2.50
2024-01-24T03:27:56.280Z,2.46
2024-01-24T03:30:22.908Z,2.39
2024-01-24T03:32:49.508Z,2.34
2024-01-24T03:35:16.061Z,2.31
2024-01-24T03:37:42.497Z,2.40
2024-01-24T03:40:09.488Z,2.38
2024-01-24T03:42:37.263Z,2.37
2024-01-24T03:45:04.251Z,2.43
2024-01-24T03:47:30.770Z,2.52
2024-01-24T03:49:57.390Z,2.43
2024-01-24T03:52:24.107Z,2.51
2024-01-24T03:54:50.806Z,2.48
2024-01-24T03:57:17.372Z,2.47
2024-01-24T03:59:44.123Z,2.48
2024-01-24T04:02:11.893Z,2.56
2024-01-24T04:04:38.929Z,2.60
2024-01-24T04:07:05.629Z,2.58
2024-01-24T04:09:32.297Z,2.64
2024-01-24T04:11:58.895Z,2.57
2024-01-24T04:14:25.674Z,2.61
2024-01-24T04:16:52.208Z,2.59
2024-01-24T04:19:18.960Z,2.56
2024-01-24T04:21:45.828Z,2.62
2024-01-24T04:24:12.594Z,2.60
2024-01-24T04:26:39.511Z,2.72
2024-01-24T04:29:06.845Z,2.68
2024-01-24T04:31:34.260Z,2.72
2024-01-24T04:34:01.270Z,2.72
2024-01-24T04:36:28.097Z,2.68
2024-01-24T04:38:54.668Z,2.77
2024-01-24T04:41:21.206Z,2.77
2024-01-24T04:43:47.970Z,2.70
2024-01-24T04:46:15.588Z,2.75
2024-01-24T04:48:46.199Z,2.67
2024-01-24T04:51:13.376Z,2.75
2024-01-24T04:53:40.982Z,2.74
2024-01-24T04:56:07.977Z,2.59
2024-01-24T04:58:34.690Z,2.62
2024-01-24T05:01:01.759Z,2.53
2024-01-24T05:03:28.899Z,2.53
2024-01-24T05:06:01.297Z,2.64
2024-01-24T05:08:34.090Z,2.59
2024-01-24T05:11:00.845Z,2.56
2024-01-24T05:13:27.439Z,2.58
2024-01-24T05:15:54.195Z,2.54
2024-01-24T05:18:21.244Z,2.49
2024-01-24T05:20:48.494Z,2.52
2024-01-24T05:23:15.958Z,2.56
2024-01-24T05:25:44.081Z,2.49
2024-01-24T05:28:13.779Z,2.45
2024-01-24T05:30:40.504Z,2.51
2024-01-24T05:33:07.325Z,2.46
2024-01-24T05:35:34.332Z,2.47
2024-01-24T05:38:01.224Z,2.52
2024-01-24T05:40:28.003Z,2.54
2024-01-24T05:42:54.736Z,2.45
2024-01-24T05:45:21.486Z,2.50
2024-01-24T05:47:48.429Z,2.44
2024-01-24T05:50:15.400Z,2.52
2024-01-24T05:52:44.130Z,2.59
2024-01-24T05:55:13.194Z,2.52
2024-01-24T05:57:43.379Z,2.54
2024-01-24T06:00:16.015Z,2.50
2024-01-24T06:02:44.460Z,2.60
2024-01-24T06:05:16.364Z,2.60
2024-01-24T06:07:43.054Z,2.63
2024-01-24T06:10:09.880Z,2.65
2024-01-24T06:12:36.529Z,2.72
2024-01-24T06:15:03.902Z,2.74
2024-01-24T06:17:31.453Z,2.71
2024-01-24T06:20:00.753Z,2.60
2024-01-24T06:22:27.349Z,2.49
2024-01-24T06:24:53.892Z,2.44
2024-01-24T06:27:20.550Z,2.33
2024-01-24T06:30:16.965Z,2.21
2024-01-24T06:32:33.601Z,2.05
2024-01-24T06:35:00.106Z,2.01
2024-01-24T06:37:26.544Z,1.95
2024-01-24T06:39:53.200Z,1.95
2024-01-24T06:42:19.877Z,1.87
2024-01-24T06:44:46.807Z,1.77
2024-01-24T06:47:13.347Z,1.73
2024-01-24T06:49:39.964Z,1.65
2024-01-24T06:52:07.624Z,1.56
2024-01-24T06:54:37.067Z,1.47
2024-01-24T06:57:04.611Z,1.50
2024-01-24T06:59:32.482Z,1.49
2024-01-24T07:02:00.281Z,1.36
2024-01-24T07:04:27.146Z,1.43
2024-01-24T07:06:53.714Z,1.37
2024-01-24T07:09:20.266Z,1.39
2024-01-24T07:11:46.754Z,1.38
2024-01-24T07:14:13.536Z,1.42
2024-01-24T07:16:40.021Z,1.44
2024-01-24T07:19:07.271Z,1.41
2024-01-24T07:21:33.820Z,1.42
2024-01-24T07:24:00.332Z,1.51
2024-01-24T07:26:26.851Z,1.46
2024-01-24T07:28:53.353Z,1.53
2024-01-24T07:31:20.667Z,1.52
2024-01-24T07:33:47.237Z,1.57
2024-01-24T07:36:13.826Z,1.57
2024-01-24T07:38:40.404Z,1.60
2024-01-24T07:41:08.781Z,1.59
2024-01-24T07:43:35.294Z,1.65
2024-01-24T07:46:02.602Z,1.62
2024-01-24T07:48:33.671Z,1.61
2024-01-24T07:51:00.315Z,1.74
2024-01-24T07:53:26.869Z,1.79
2024-01-24T07:56:02.238Z,1.85
2024-01-24T07:58:40.383Z,1.88
2024-01-24T08:01:09.278Z,1.88
2024-01-24T08:03:36.271Z,1.95
2024-01-24T08:06:03.701Z,1.96
2024-01-24T08:08:30.954Z,1.99
2024-01-24T08:10:57.547Z,2.03
2024-01-24T08:13:24.372Z,2.06
2024-01-24T08:15:51.315Z,2.05
2024-01-24T08:18:18.040Z,2.05
2024-01-24T08:20:44.829Z,2.14
2024-01-24T08:23:12.972Z,2.11
2024-01-24T08:25:39.425Z,2.11
2024-01-24T08:28:06.185Z,2.12
2024-01-24T08:30:33.077Z,2.17
2024-01-24T08:32:59.640Z,2.17
2024-01-24T08:35:26.374Z,2.17
2024-01-24T08:37:52.911Z,2.25
2024-01-24T08:40:20.319Z,2.29
2024-01-24T08:42:47.382Z,2.33
2024-01-24T08:45:14.259Z,2.34
2024-01-24T08:47:40.818Z,2.29
2024-01-24T08:50:08.440Z,2.36
2024-01-24T08:52:35.041Z,2.48
2024-01-24T08:55:02.202Z,2.50
2024-01-24T08:57:29.640Z,2.40
2024-01-24T08:59:56.515Z,2.51
2024-01-24T09:02:23.892Z,2.51
2024-01-24T09:04:53.103Z,2.61
2024-01-24T09:07:24.301Z,2.67
2024-01-24T09:09:52.388Z,2.64
2024-01-24T09:12:19.437Z,2.66
2024-01-24T09:14:46.258Z,2.75
2024-01-24T09:17:13.636Z,2.80
2024-01-24T09:19:43.502Z,2.84
2024-01-24T09:22:13.371Z,2.92
2024-01-24T09:24:40.060Z,2.93
2024-01-24T09:27:07.163Z,2.96
2024-01-24T09:29:33.975Z,2.97
2024-01-24T09:32:00.592Z,3.03
2024-01-24T09:34:28.469Z,3.05
2024-01-24T09:36:56.165Z,3.12
2024-01-24T09:39:24.202Z,3.18
2024-01-24T09:41:52.802Z,3.21
2024-01-24T09:44:23.969Z,3.21
2024-01-24T09:46:53.377Z,3.30
2024-01-24T09:49:20.958Z,3.34
2024-01-24T09:51:50.840Z,3.40
2024-01-24T09:54:21.586Z,3.41
2024-01-24T09:56:50.222Z,3.47
2024-01-24T09:59:17.388Z,3.54
2024-01-24T10:01:47.502Z,3.49
2024-01-24T10:04:16.350Z,3.46
2024-01-24T10:06:43.964Z,3.67
2024-01-24T10:09:11.008Z,3.66
2024-01-24T10:11:37.759Z,3.66
2024-01-24T10:14:04.280Z,3.69
2024-01-24T10:16:30.910Z,3.75
2024-01-24T10:18:58.294Z,3.69
2024-01-24T10:21:27.030Z,3.57
2024-01-24T10:23:59.097Z,3.60
2024-01-24T10:26:31.155Z,3.59
2024-01-24T10:28:57.997Z,3.77
2024-01-24T10:31:25.648Z,3.85
2024-01-24T10:33:59.116Z,3.78
2024-01-24T10:36:32.386Z,3.79
2024-01-24T10:39:05.216Z,3.63
2024-01-24T10:41:33.514Z,3.64
2024-01-24T10:44:07.662Z,3.71
2024-01-24T10:46:34.650Z,3.73
2024-01-24T10:49:02.820Z,3.75
2024-01-24T10:51:30.824Z,3.83
2024-01-24T10:53:58.364Z,3.92
2024-01-24T10:56:26.114Z,3.82
2024-01-24T10:58:52.966Z,3.84
2024-01-24T11:01:20.070Z,3.80
2024-01-24T11:03:51.028Z,3.83
2024-01-24T11:06:19.452Z,3.84
2024-01-24T11:09:03.895Z,4.06
2024-01-24T11:11:33.068Z,3.98
2024-01-24T11:14:00.365Z,3.94
2024-01-24T11:16:26.904Z,4.05
2024-01-24T11:18:58.173Z,4.04
2024-01-24T11:21:24.865Z,4.03
2024-01-24T11:23:51.617Z,4.02
2024-01-24T11:26:18.011Z,4.06
2024-01-24T11:28:48.187Z,4.15
2024-01-24T11:31:15.371Z,4.22
2024-01-24T11:34:11.310Z,4.38
2024-01-24T11:36:43.006Z,4.41
2024-01-24T11:39:39.060Z,4.42
2024-01-24T11:42:25.057Z,4.49
2024-01-24T11:44:55.030Z,4.55
2024-01-24T11:47:23.872Z,4.59
2024-01-24T11:49:52.212Z,4.66
2024-01-24T11:52:22.270Z,4.75
2024-01-24T11:54:55.454Z,4.86
2024-01-24T11:57:22.168Z,4.92
2024-01-24T11:59:49.261Z,5.17
2024-01-24T12:02:17.317Z,5.21
2024-01-24T12:04:44.041Z,5.25
2024-01-24T12:07:10.989Z,5.33
2024-01-24T12:09:37.583Z,5.41
2024-01-24T12:12:04.526Z,5.54
2024-01-24T12:14:31.184Z,5.57
2024-01-24T12:16:58.760Z,5.62
2024-01-24T12:19:26.928Z,5.66
2024-01-24T12:21:56.115Z,5.82
2024-01-24T12:24:23.515Z,5.92
2024-01-24T12:26:52.227Z,6.10
2024-01-24T12:29:22.217Z,6.22
2024-01-24T12:31:49.494Z,6.21
2024-01-24T12:34:16.391Z,6.21
2024-01-24T12:36:45.933Z,6.23
2024-01-24T12:39:12.677Z,6.31
2024-01-24T12:41:40.427Z,6.32
2024-01-24T12:44:09.923Z,6.39
2024-01-24T12:46:39.348Z,6.25
2024-01-24T12:49:06.121Z,6.26
2024-01-24T12:51:33.394Z,6.40
2024-01-24T12:54:00.052Z,6.53
2024-01-24T12:56:26.974Z,6.58
2024-01-24T12:58:53.746Z,6.58
2024-01-24T13:01:20.608Z,6.63
2024-01-24T13:03:47.287Z,6.59
2024-01-24T13:06:14.036Z,6.49
2024-01-24T13:08:40.688Z,6.50
2024-01-24T13:11:07.458Z,6.49
2024-01-24T13:13:34.214Z,6.57
2024-01-24T13:16:01.009Z,6.53
2024-01-24T13:18:27.746Z,6.50
2024-01-24T13:20:54.520Z,6.37
2024-01-24T13:23:21.890Z,6.28
2024-01-24T13:25:48.612Z,6.33
2024-01-24T13:28:15.468Z,6.33
2024-01-24T13:30:42.192Z,6.32
2024-01-24T13:33:11.264Z,6.27
2024-01-24T13:35:38.038Z,6.23
2024-01-24T13:38:05.386Z,6.26
2024-01-24T13:40:32.269Z,6.25
2024-01-24T13:42:58.834Z,6.24
2024-01-24T13:45:25.510Z,6.19
2024-01-24T13:47:52.164Z,6.18
2024-01-24T13:50:18.778Z,6.22
2024-01-24T13:52:45.480Z,6.19
2024-01-24T13:55:15.134Z,6.18
2024-01-24T13:57:43.937Z,6.16
2024-01-24T14:00:14.797Z,6.17
2024-01-24T14:02:42.566Z,6.14
2024-01-24T14:05:11.152Z,6.11
2024-01-24T14:07:40.041Z,6.10
2024-01-24T14:10:07.569Z,5.97
2024-01-24T14:12:34.332Z,5.93
2024-01-24T14:15:05.418Z,5.93
2024-01-24T14:17:34.709Z,5.86
2024-01-24T14:20:02.404Z,5.80
2024-01-24T14:22:29.151Z,5.82
2024-01-24T14:24:55.857Z,5.82
2024-01-24T14:27:25.945Z,5.72
2024-01-24T14:29:52.474Z,5.74
2024-01-24T14:32:20.557Z,5.63
2024-01-24T14:34:47.521Z,5.59
2024-01-24T14:37:14.253Z,5.61
2024-01-24T14:39:41.041Z,5.53
2024-01-24T14:42:09.324Z,5.48
2024-01-24T14:44:36.456Z,5.43
2024-01-24T14:47:02.996Z,5.28
2024-01-24T14:49:29.678Z,5.19
2024-01-24T14:51:56.704Z,5.20
2024-01-24T14:54:23.282Z,5.10
2024-01-24T14:56:49.903Z,5.02
2024-01-24T14:59:16.521Z,4.92
2024-01-24T15:04:55.432Z,4.87
2024-01-24T15:07:22.589Z,5.02
2024-01-24T15:09:49.181Z,5.13
2024-01-24T15:12:15.736Z,5.21
2024-01-24T15:14:42.526Z,5.23
2024-01-24T15:17:09.119Z,5.28
2024-01-24T15:19:35.911Z,5.29
2024-01-24T15:22:02.814Z,5.37
2024-01-24T15:24:29.369Z,5.45
2024-01-24T15:26:56.187Z,5.49
2024-01-24T15:29:22.942Z,5.55
2024-01-24T15:31:49.513Z,5.55
2024-01-24T15:34:17.801Z,5.65
2024-01-24T15:36:44.935Z,5.66
2024-01-24T15:39:14.644Z,5.70
2024-01-24T15:41:42.577Z,5.74
2024-01-24T15:44:09.364Z,5.84
2024-01-24T15:46:36.249Z,5.95
2024-01-24T15:49:04.138Z,6.00
2024-01-24T15:51:31.260Z,6.01
2024-01-24T15:53:57.818Z,6.01
2024-01-24T15:56:24.378Z,6.05
2024-01-24T15:58:50.964Z,5.97
2024-01-24T16:01:17.964Z,5.95
2024-01-24T16:03:44.732Z,5.86
2024-01-24T16:06:12.107Z,5.89
2024-01-24T16:08:38.751Z,5.83
2024-01-24T16:11:05.402Z,5.84
2024-01-24T16:13:32.018Z,5.80
2024-01-24T16:16:01.566Z,5.83
2024-01-24T16:18:29.965Z,5.91
2024-01-24T16:20:57.091Z,5.82
2024-01-24T16:23:23.656Z,5.88
2024-01-24T16:25:50.256Z,5.91
2024-01-24T16:28:17.515Z,5.90
2024-01-24T16:30:44.588Z,5.89
2024-01-24T16:33:12.053Z,5.84
2024-01-24T16:35:38.902Z,5.81
2024-01-24T16:38:05.984Z,5.86
2024-01-24T16:40:33.134Z,5.89
2024-01-24T16:42:59.775Z,5.91
2024-01-24T16:45:26.433Z,5.99
2024-01-24T16:47:53.173Z,5.98
2024-01-24T16:50:19.885Z,5.98
2024-01-24T16:52:46.582Z,5.93
2024-01-24T16:55:13.388Z,5.98
2024-01-24T16:57:40.150Z,5.90
2024-01-24T17:00:07.298Z,6.00
2024-01-24T17:02:42.547Z,5.96
2024-01-24T17:05:13.697Z,6.00
2024-01-24T17:07:40.359Z,6.01
2024-01-24T17:10:07.383Z,5.98
2024-01-24T17:12:34.151Z,5.99
2024-01-24T17:15:00.868Z,6.06
2024-01-24T17:17:27.619Z,6.05
2024-01-24T17:19:54.952Z,5.93
2024-01-24T17:22:21.725Z,5.83
2024-01-24T17:24:48.488Z,5.91
2024-01-24T17:27:15.162Z,5.91
2024-01-24T17:29:41.920Z,5.95
2024-01-24T17:32:08.559Z,6.02
2024-01-24T17:34:35.270Z,6.04
2024-01-24T17:37:02.106Z,6.07
2024-01-24T17:39:28.767Z,6.09
2024-01-24T17:41:55.464Z,6.11
2024-01-24T17:44:22.145Z,6.06
2024-01-24T17:46:49.065Z,6.05
2024-01-24T17:49:16.746Z,6.11
2024-01-24T17:51:44.319Z,6.22
2024-01-24T17:54:11.922Z,6.21
2024-01-24T17:56:38.603Z,6.26
2024-01-24T17:59:05.350Z,6.22
2024-01-24T18:01:32.577Z,6.27
2024-01-24T18:03:59.641Z,6.29
2024-01-24T18:06:26.788Z,6.33
2024-01-24T18:08:53.329Z,6.29
2024-01-24T18:11:19.914Z,6.36
2024-01-24T18:13:46.513Z,6.33
2024-01-24T18:16:13.125Z,6.40
2024-01-24T18:18:40.012Z,6.34
2024-01-24T18:21:08.538Z,6.36
2024-01-24T18:23:35.998Z,6.28
2024-01-24T18:26:02.935Z,6.31
2024-01-24T18:28:29.426Z,6.37
2024-01-24T18:30:56.179Z,6.23
2024-01-24T18:33:23.472Z,6.27
2024-01-24T18:35:50.003Z,6.24
2024-01-24T18:38:18.063Z,6.18
2024-01-24T18:40:44.928Z,6.16
2024-01-24T18:43:12.316Z,6.12
2024-01-24T18:45:38.949Z,6.07
2024-01-24T18:48:06.620Z,6.01
2024-01-24T18:50:33.226Z,5.94
2024-01-24T18:52:59.968Z,5.82
2024-01-24T18:55:27.019Z,5.75
2024-01-24T18:57:53.986Z,5.76
2024-01-24T19:00:22.181Z,5.76
2024-01-24T19:02:49.099Z,5.77
2024-01-24T19:05:19.740Z,5.83
2024-01-24T19:07:50.964Z,5.88
2024-01-24T19:10:18.604Z,5.89
2024-01-24T19:12:45.394Z,5.88
2024-01-24T19:15:12.136Z,5.86
2024-01-24T19:17:39.731Z,5.83
2024-01-24T19:20:07.111Z,5.76
2024-01-24T19:22:33.956Z,5.75
2024-01-24T19:25:00.596Z,5.77
2024-01-24T19:27:27.414Z,5.83
2024-01-24T19:29:54.298Z,5.83
2024-01-24T19:32:20.955Z,5.92
2024-01-24T19:34:56.039Z,5.89
2024-01-24T19:37:23.741Z,5.91
2024-01-24T19:39:50.418Z,5.86
2024-01-24T19:42:17.761Z,5.89
2024-01-24T19:44:44.531Z,5.92
2024-01-24T19:47:12.027Z,5.87
2024-01-24T19:49:38.688Z,5.87
2024-01-24T19:52:05.766Z,5.88
2024-01-24T19:54:32.391Z,5.91
2024-01-24T19:56:59.100Z,5.90
2024-01-24T19:59:25.900Z,5.86
2024-01-24T20:01:53.202Z,5.81
2024-01-24T20:04:20.316Z,5.88
2024-01-24T20:06:46.873Z,5.79
2024-01-24T20:09:16.615Z,5.76
2024-01-24T20:11:43.160Z,5.74
2024-01-24T20:14:09.873Z,5.62
2024-01-24T20:16:36.326Z,5.62
2024-01-24T20:19:03.067Z,5.61
2024-01-24T20:21:30.166Z,5.65
2024-01-24T20:23:58.093Z,5.62
2024-01-24T20:26:25.119Z,5.66
2024-01-24T20:28:51.965Z,5.69
2024-01-24T20:31:18.427Z,5.66
2024-01-24T20:33:44.982Z,5.74
2024-01-24T20:36:12.954Z,5.77
2024-01-24T20:38:42.646Z,5.82
2024-01-24T20:41:10.741Z,5.93
2024-01-24T20:43:38.989Z,5.80
2024-01-24T20:46:07.956Z,5.69
2024-01-24T20:48:34.890Z,5.67
2024-01-24T20:51:02.250Z,5.67
2024-01-24T20:53:29.532Z,5.60
2024-01-24T20:55:57.367Z,5.54
2024-01-24T20:58:24.259Z,5.48
2024-01-24T21:00:50.975Z,5.28
2024-01-24T21:03:21.102Z,5.24
2024-01-24T21:05:50.859Z,5.17
2024-01-24T21:08:17.659Z,5.14
2024-01-24T21:10:49.325Z,5.11
2024-01-24T21:13:22.367Z,5.07
2024-01-24T21:15:49.343Z,5.02
2024-01-24T21:18:17.403Z,5.05
2024-01-24T21:20:44.102Z,5.11
2024-01-24T21:23:11.860Z,5.11
2024-01-24T21:25:38.501Z,5.08
2024-01-24T21:28:05.745Z,5.04
2024-01-24T21:30:32.408Z,5.01
2024-01-24T21:32:59.266Z,5.03
2024-01-24T21:35:26.032Z,5.04
2024-01-24T21:37:52.633Z,5.00
2024-01-24T21:40:19.280Z,5.16
2024-01-24T21:42:46.135Z,5.13
2024-01-24T21:45:12.955Z,5.17
2024-01-24T21:47:41.366Z,5.23
2024-01-24T21:50:09.037Z,5.24
2024-01-24T21:52:36.981Z,5.30
2024-01-24T21:55:04.990Z,5.40
2024-01-24T21:57:31.672Z,5.42
2024-01-24T21:59:58.856Z,5.46
2024-01-24T22:02:25.643Z,5.39
2024-01-24T22:04:52.436Z,5.39
2024-01-24T22:07:19.170Z,5.45
2024-01-24T22:09:49.600Z,5.46
2024-01-24T22:12:17.324Z,5.48
2024-01-24T22:14:43.989Z,5.46
2024-01-24T22:17:11.702Z,5.49
2024-01-24T22:19:38.421Z,5.48
2024-01-24T22:22:05.021Z,5.45
2024-01-24T22:24:31.679Z,5.49
2024-01-24T22:26:58.295Z,5.49
2024-01-24T22:29:24.829Z,5.44
2024-01-24T22:31:51.268Z,5.52
2024-01-24T22:34:17.830Z,5.47
2024-01-24T22:36:44.480Z,5.50
2024-01-24T22:39:11.957Z,5.44
2024-01-24T22:41:42.612Z,5.42
2024-01-24T22:44:11.013Z,5.38
2024-01-24T22:46:40.999Z,5.31
2024-01-24T22:49:08.445Z,5.24
2024-01-24T22:51:36.567Z,5.21
2024-01-24T22:54:03.855Z,5.15
2024-01-24T22:56:31.162Z,5.10
2024-01-24T22:58:57.903Z,5.08
2024-01-24T23:01:24.618Z,5.07
2024-01-24T23:03:51.565Z,5.02
2024-01-24T23:06:18.705Z,5.04
2024-01-24T23:08:45.278Z,5.00
2024-01-24T23:11:12.991Z,5.02
2024-01-24T23:13:41.700Z,5.01
2024-01-24T23:16:08.842Z,5.01
2024-01-24T23:18:35.434Z,5.01
2024-01-24T23:21:01.904Z,4.97
2024-01-24T23:23:28.427Z,4.94
2024-01-24T23:25:55.057Z,4.96
2024-01-24T23:28:21.710Z,5.01
2024-01-24T23:30:48.317Z,5.04
2024-01-24T23:33:15.054Z,5.03
2024-01-24T23:35:41.743Z,5.06
2024-01-24T23:38:08.212Z,5.07
2024-01-24T23:40:34.944Z,5.07
2024-01-24T23:43:01.677Z,5.10
2024-01-24T23:45:28.710Z,5.11
2024-01-24T23:47:55.547Z,5.13
2024-01-24T23:50:22.819Z,5.11
2024-01-24T23:52:49.837Z,5.09
2024-01-24T23:55:16.835Z,5.12
2024-01-24T23:57:43.481Z,5.06
